Time;durP1;ratioP1;P1;durP2;ratioP2;P2;SDS_P1;SDS_P2;PMS_P1;PMS_P2;Temp;Humidity;BMP_temperature;BMP_pressure;BME280_temperature;BME280_humidity;BME280_pressure;Samples;Min_cycle;Max_cycle;Signal;HPM_P1;HPM_P2
2023/08/04 00:00:59;;;;;;;16.53;4.47;;;15.90;99.90;;;;;;7286739;19;20658;-76
2023/08/04 00:03:26;;;;;;;13.87;4.37;;;15.90;99.90;;;;;;7284186;19;20200;-76
2023/08/04 00:05:52;;;;;;;12.83;4.37;;;15.70;99.90;;;;;;7285580;19;20302;-76
2023/08/04 00:08:17;;;;;;;13.33;4.40;;;15.70;99.90;;;;;;7302387;19;20210;-75
2023/08/04 00:10:43;;;;;;;13.07;4.17;;;15.60;99.90;;;;;;7298643;19;20227;-76
2023/08/04 00:13:09;;;;;;;12.23;4.30;;;15.50;99.90;;;;;;7285293;19;20658;-76
2023/08/04 00:15:35;;;;;;;17.10;4.33;;;15.50;99.90;;;;;;7284170;19;20191;-76
2023/08/04 00:18:03;;;;;;;16.60;4.80;;;15.50;99.90;;;;;;7283510;19;20202;-76
2023/08/04 00:20:29;;;;;;;15.73;4.50;;;15.50;99.90;;;;;;7286530;19;20265;-76
2023/08/04 00:22:54;;;;;;;18.33;5.13;;;15.50;99.90;;;;;;7284876;19;20319;-76
2023/08/04 00:25:20;;;;;;;14.40;4.73;;;15.50;99.90;;;;;;7285035;19;20186;-75
2023/08/04 00:27:46;;;;;;;14.73;4.60;;;15.50;99.90;;;;;;7307245;19;20194;-76
2023/08/04 00:30:12;;;;;;;14.30;4.90;;;15.40;99.90;;;;;;7285131;19;20231;-76
2023/08/04 00:32:38;;;;;;;15.37;4.53;;;15.30;99.90;;;;;;7281125;19;20188;-76
2023/08/04 00:35:05;;;;;;;14.17;4.87;;;15.30;99.90;;;;;;7282615;19;20681;-76
2023/08/04 00:37:34;;;;;;;14.60;4.73;;;15.30;99.90;;;;;;7283013;19;20213;-76
2023/08/04 00:39:59;;;;;;;13.97;4.90;;;15.30;99.90;;;;;;7285368;19;20188;-76
2023/08/04 00:42:25;;;;;;;13.77;4.60;;;15.20;99.90;;;;;;7283416;19;20588;-76
2023/08/04 00:44:51;;;;;;;13.77;4.70;;;15.10;99.90;;;;;;7283699;19;20209;-75
2023/08/04 00:47:18;;;;;;;15.17;4.87;;;15.10;99.90;;;;;;7301880;19;20196;-75
2023/08/04 00:49:45;;;;;;;16.80;5.00;;;15.10;99.90;;;;;;7303995;19;20193;-76
2023/08/04 00:52:11;;;;;;;14.67;5.07;;;15.10;99.90;;;;;;7283652;19;20222;-76
2023/08/04 00:54:37;;;;;;;15.90;4.90;;;14.90;99.90;;;;;;7283617;19;20234;-76
2023/08/04 00:57:05;;;;;;;15.23;4.90;;;14.90;99.90;;;;;;7287031;19;20543;-75
2023/08/04 00:59:31;;;;;;;15.47;5.00;;;14.90;99.90;;;;;;7285632;19;20187;-76
2023/08/04 01:01:57;;;;;;;15.80;5.10;;;14.90;99.90;;;;;;7282887;19;20193;-75
2023/08/04 01:04:23;;;;;;;10.93;4.33;;;14.90;99.90;;;;;;7283805;19;20200;-75
2023/08/04 01:07:20;;;;;;;14.70;4.97;;;14.90;99.90;;;;;;7283607;19;20189;-76
2023/08/04 01:10:23;;;;;;;11.93;4.80;;;14.90;99.90;;;;;;7284651;19;20202;-76
2023/08/04 01:13:00;;;;;;;16.77;4.77;;;14.90;99.90;;;;;;7168720;19;2006404;-76
2023/08/04 01:15:27;;;;;;;13.47;5.17;;;14.90;99.90;;;;;;7282799;19;20199;-76
2023/08/04 01:17:56;;;;;;;18.67;4.67;;;14.80;99.90;;;;;;7281579;19;20194;-76
2023/08/04 01:20:26;;;;;;;14.83;4.87;;;14.80;99.90;;;;;;7280435;19;20677;-76
2023/08/04 01:22:54;;;;;;;15.83;5.10;;;14.80;99.90;;;;;;7282908;19;20219;-75
2023/08/04 01:25:35;;;;;;;14.67;5.40;;;14.80;99.90;;;;;;7282129;19;20202;-75
2023/08/04 01:28:05;;;;;;;13.93;4.77;;;14.80;99.90;;;;;;7281544;19;20196;-75
2023/08/04 01:30:32;;;;;;;16.90;5.10;;;14.70;99.90;;;;;;7280982;19;20197;-75
2023/08/04 01:32:58;;;;;;;11.47;5.03;;;14.50;99.90;;;;;;7282046;19;20272;-75
2023/08/04 01:35:25;;;;;;;15.73;4.87;;;14.50;99.90;;;;;;7281776;19;20220;-76
2023/08/04 01:37:51;;;;;;;15.70;5.13;;;14.50;99.90;;;;;;7283574;19;20192;-75
2023/08/04 01:40:17;;;;;;;15.10;5.13;;;14.50;99.90;;;;;;7304968;19;20202;-75
2023/08/04 01:42:43;;;;;;;17.20;5.10;;;14.40;99.90;;;;;;7281784;19;20648;-76
2023/08/04 01:45:09;;;;;;;16.03;4.83;;;14.20;99.90;;;;;;7280731;19;20658;-75
2023/08/04 01:47:35;;;;;;;13.70;4.73;;;14.10;99.90;;;;;;7281376;19;20189;-76
2023/08/04 01:50:01;;;;;;;17.30;5.40;;;14.10;99.90;;;;;;7282858;19;20192;-76
2023/08/04 01:52:26;;;;;;;15.53;6.10;;;14.30;99.90;;;;;;7281273;19;20186;-76
2023/08/04 01:54:52;;;;;;;15.67;5.60;;;14.50;99.90;;;;;;7280701;19;20248;-76
2023/08/04 01:57:18;;;;;;;18.73;5.43;;;14.50;99.90;;;;;;7298889;19;20200;-76
2023/08/04 01:59:44;;;;;;;13.93;5.37;;;14.50;99.90;;;;;;7296151;19;20186;-76
2023/08/04 02:02:09;;;;;;;14.83;5.47;;;14.50;99.90;;;;;;7281540;19;20211;-76
2023/08/04 02:04:35;;;;;;;14.83;5.03;;;14.40;99.90;;;;;;7282402;19;20200;-76
2023/08/04 02:07:01;;;;;;;13.17;5.00;;;14.40;99.90;;;;;;7282332;19;21017;-76
2023/08/04 02:09:28;;;;;;;14.07;5.00;;;14.40;99.90;;;;;;7281211;19;20206;-76
2023/08/04 02:11:56;;;;;;;16.87;5.53;;;14.40;99.90;;;;;;7280181;19;20181;-76
2023/08/04 02:14:22;;;;;;;17.90;5.37;;;14.50;99.90;;;;;;7282438;19;20186;-75
2023/08/04 02:16:48;;;;;;;13.90;5.13;;;14.60;99.90;;;;;;7299872;19;20185;-75
2023/08/04 02:19:13;;;;;;;16.77;5.50;;;14.60;99.90;;;;;;7293109;19;20190;-76
2023/08/04 02:21:39;;;;;;;16.53;5.80;;;14.60;99.90;;;;;;7281135;19;20328;-75
2023/08/04 02:24:05;;;;;;;14.57;5.40;;;14.70;99.90;;;;;;7279906;19;20186;-76
2023/08/04 02:26:31;;;;;;;16.87;5.17;;;14.70;99.90;;;;;;7282399;19;20193;-76
2023/08/04 02:28:57;;;;;;;13.27;5.23;;;14.70;99.90;;;;;;7282660;19;20278;-76
2023/08/04 02:31:25;;;;;;;19.13;5.80;;;14.70;99.90;;;;;;7281386;19;20189;-76
2023/08/04 02:33:53;;;;;;;17.87;6.00;;;14.70;99.90;;;;;;7280633;19;20192;-75
2023/08/04 02:36:20;;;;;;;15.13;5.27;;;14.80;99.90;;;;;;7291297;19;20247;-75
2023/08/04 02:38:46;;;;;;;18.30;5.60;;;14.90;99.90;;;;;;7302161;19;20200;-76
2023/08/04 02:41:12;;;;;;;17.93;6.30;;;14.90;99.90;;;;;;7281939;19;20181;-76
2023/08/04 02:43:39;;;;;;;20.63;6.40;;;14.90;99.90;;;;;;7279373;19;21508;-76
2023/08/04 02:46:05;;;;;;;13.90;5.70;;;15.00;99.90;;;;;;7281266;19;20250;-76
2023/08/04 02:48:33;;;;;;;13.63;5.67;;;15.10;99.90;;;;;;7280517;19;20751;-76
2023/08/04 02:51:04;;;;;;;16.10;5.73;;;15.20;99.90;;;;;;7278748;19;20196;-76
2023/08/04 02:53:31;;;;;;;10.00;5.27;;;15.30;99.90;;;;;;7278672;19;20269;-76
2023/08/04 02:55:57;;;;;;;15.37;5.70;;;15.50;99.90;;;;;;7278228;19;20378;-76
2023/08/04 02:58:24;;;;;;;17.27;5.60;;;15.50;99.90;;;;;;7280753;19;20194;-75
2023/08/04 03:00:50;;;;;;;11.33;5.20;;;15.60;99.90;;;;;;7282440;19;20884;-76
2023/08/04 03:03:18;;;;;;;14.87;5.63;;;15.70;99.90;;;;;;7300625;19;20874;-76
2023/08/04 03:05:44;;;;;;;18.37;5.70;;;15.70;99.90;;;;;;7280482;19;20277;-76
2023/08/04 03:08:10;;;;;;;16.03;5.60;;;15.70;99.90;;;;;;7279303;19;20293;-76
2023/08/04 03:10:40;;;;;;;17.57;5.87;;;15.70;99.90;;;;;;7279982;19;20251;-76
2023/08/04 03:13:06;;;;;;;13.87;5.10;;;15.70;99.90;;;;;;7280860;19;21101;-76
2023/08/04 03:15:31;;;;;;;19.10;6.07;;;15.70;99.90;;;;;;7279366;19;20185;-76
2023/08/04 03:17:57;;;;;;;13.60;5.10;;;15.80;99.90;;;;;;7279323;19;20217;-76
2023/08/04 03:20:23;;;;;;;11.90;5.00;;;15.80;99.90;;;;;;7279702;19;20195;-76
2023/08/04 03:22:48;;;;;;;14.40;5.00;;;15.80;99.90;;;;;;7289407;19;20256;-75
2023/08/04 03:25:14;;;;;;;14.63;4.93;;;15.60;99.90;;;;;;7295216;19;20211;-76
2023/08/04 03:27:40;;;;;;;14.60;5.27;;;15.60;99.90;;;;;;7280477;19;20194;-76
2023/08/04 03:30:07;;;;;;;17.13;5.70;;;15.60;99.90;;;;;;7279887;19;20284;-76
2023/08/04 03:32:32;;;;;;;12.70;4.97;;;15.70;99.90;;;;;;7279644;19;20189;-76
2023/08/04 03:34:58;;;;;;;14.97;5.20;;;15.80;99.90;;;;;;7279340;19;20205;-76
2023/08/04 03:37:24;;;;;;;11.80;5.37;;;15.80;99.90;;;;;;7280457;19;20287;-76
2023/08/04 03:39:49;;;;;;;13.67;5.00;;;15.90;99.90;;;;;;7281203;19;20279;-75
2023/08/04 03:42:15;;;;;;;13.60;5.20;;;15.90;99.90;;;;;;7302230;19;20184;-77
2023/08/04 03:44:41;;;;;;;11.50;5.10;;;15.80;99.90;;;;;;7278671;19;20183;-76
2023/08/04 03:47:07;;;;;;;13.30;5.17;;;15.80;99.90;;;;;;7278435;19;20231;-76
2023/08/04 03:49:32;;;;;;;14.10;5.80;;;15.70;99.90;;;;;;7279549;19;20189;-76
2023/08/04 03:51:58;;;;;;;13.30;4.90;;;15.70;99.90;;;;;;7278153;19;20561;-76
2023/08/04 03:54:24;;;;;;;18.87;5.33;;;15.80;99.90;;;;;;7279776;19;20189;-76
2023/08/04 03:56:50;;;;;;;14.23;5.30;;;15.80;99.90;;;;;;7280867;19;20191;-76
2023/08/04 03:59:15;;;;;;;14.33;5.00;;;15.80;99.90;;;;;;7300110;19;20277;-75
2023/08/04 04:01:41;;;;;;;19.27;6.10;;;15.80;99.90;;;;;;7281205;19;20697;-76
2023/08/04 04:04:07;;;;;;;14.07;5.17;;;15.80;99.90;;;;;;7279626;19;20215;-76
2023/08/04 04:06:32;;;;;;;12.80;5.30;;;15.90;99.90;;;;;;7285889;19;20196;-76
2023/08/04 04:08:58;;;;;;;19.03;5.67;;;16.00;99.90;;;;;;7291660;19;20190;-76
2023/08/04 04:11:24;;;;;;;16.07;5.13;;;15.90;99.90;;;;;;7291516;19;20196;-76
2023/08/04 04:13:50;;;;;;;13.17;4.73;;;15.90;99.90;;;;;;7290745;19;20199;-75
2023/08/04 04:16:15;;;;;;;18.33;5.60;;;16.00;99.90;;;;;;7312289;19;20190;-76
2023/08/04 04:18:41;;;;;;;20.67;5.73;;;16.00;99.90;;;;;;7288153;19;20254;-76
2023/08/04 04:21:07;;;;;;;17.40;6.60;;;16.10;99.90;;;;;;7286770;19;20546;-76
2023/08/04 04:23:32;;;;;;;13.73;5.53;;;16.20;99.90;;;;;;7283252;19;20220;-77
2023/08/04 04:25:58;;;;;;;14.07;5.47;;;16.20;99.90;;;;;;7284779;19;20192;-76
2023/08/04 04:28:24;;;;;;;16.27;5.77;;;16.20;99.90;;;;;;7285117;19;20534;-76
2023/08/04 04:30:50;;;;;;;17.03;5.73;;;16.20;99.90;;;;;;7287761;19;20196;-76
2023/08/04 04:33:16;;;;;;;15.53;5.80;;;16.10;99.90;;;;;;7307920;19;20199;-76
2023/08/04 04:35:49;;;;;;;16.07;6.00;;;16.10;99.90;;;;;;7285177;19;20195;-76
2023/08/04 04:38:14;;;;;;;12.77;5.93;;;16.10;99.90;;;;;;7285678;19;20207;-76
2023/08/04 04:40:40;;;;;;;15.30;6.63;;;16.20;99.90;;;;;;7285334;19;20191;-76
2023/08/04 04:43:06;;;;;;;13.40;6.03;;;16.20;99.90;;;;;;7285154;19;20800;-76
2023/08/04 04:45:31;;;;;;;13.57;5.73;;;16.30;99.90;;;;;;7284085;19;20312;-76
2023/08/04 04:47:58;;;;;;;15.10;5.80;;;16.30;99.90;;;;;;7284758;19;20542;-76
2023/08/04 04:50:24;;;;;;;15.10;5.50;;;16.40;99.90;;;;;;7284905;19;20182;-76
2023/08/04 04:52:51;;;;;;;12.97;5.37;;;16.70;99.90;;;;;;7282902;19;20199;-75
2023/08/04 04:55:17;;;;;;;15.53;5.20;;;16.90;99.90;;;;;;7304347;19;20199;-76
2023/08/04 04:57:43;;;;;;;13.47;5.30;;;16.90;99.90;;;;;;7282301;19;20192;-76
2023/08/04 05:00:09;;;;;;;14.47;5.90;;;17.00;99.90;;;;;;7284745;19;20181;-76
2023/08/04 05:02:35;;;;;;;11.97;5.40;;;17.10;99.90;;;;;;7283441;19;20193;-76
2023/08/04 05:05:01;;;;;;;14.53;5.70;;;17.20;99.90;;;;;;7283796;19;20213;-76
2023/08/04 05:07:27;;;;;;;13.03;4.90;;;17.20;99.90;;;;;;7283258;19;20696;-76
2023/08/04 05:09:55;;;;;;;11.33;5.23;;;17.50;99.90;;;;;;7284304;19;20181;-76
2023/08/04 05:12:21;;;;;;;15.13;5.50;;;18.20;99.90;;;;;;7282829;19;20200;-75
2023/08/04 05:14:47;;;;;;;10.33;4.33;;;19.40;99.90;;;;;;7305758;19;20569;-76
2023/08/04 05:17:13;;;;;;;13.73;4.70;;;20.20;99.90;;;;;;7282556;19;20193;-76
2023/08/04 05:19:38;;;;;;;11.67;4.20;;;20.60;99.90;;;;;;7282777;19;20239;-76
2023/08/04 05:22:04;;;;;;;11.63;4.00;;;20.50;99.90;;;;;;7283073;19;20211;-76
2023/08/04 05:24:30;;;;;;;11.30;4.50;;;20.20;99.90;;;;;;7280190;19;20209;-76
2023/08/04 05:26:57;;;;;;;11.23;4.93;;;19.80;99.90;;;;;;7283207;19;20189;-76
2023/08/04 05:29:23;;;;;;;10.83;4.20;;;19.40;99.90;;;;;;7282157;19;20521;-76
2023/08/04 05:31:48;;;;;;;13.67;5.30;;;19.20;99.90;;;;;;7298527;19;20197;-75
2023/08/04 05:34:14;;;;;;;12.70;5.40;;;19.00;99.90;;;;;;7296204;19;20200;-76
2023/08/04 05:36:40;;;;;;;13.20;6.27;;;18.90;99.90;;;;;;7284250;19;20193;-76
2023/08/04 05:39:05;;;;;;;16.17;7.00;;;18.90;99.90;;;;;;7283399;19;20191;-77
2023/08/04 05:41:31;;;;;;;14.13;6.67;;;18.90;99.90;;;;;;7284048;19;20284;-76
2023/08/04 05:43:57;;;;;;;15.57;7.40;;;18.80;99.90;;;;;;7279581;19;20220;-75
2023/08/04 05:46:23;;;;;;;14.93;7.30;;;18.70;99.90;;;;;;7277140;19;20192;-76
2023/08/04 05:48:48;;;;;;;15.30;7.93;;;18.70;99.90;;;;;;7300413;19;20211;-76
2023/08/04 05:51:15;;;;;;;15.10;7.97;;;18.70;99.90;;;;;;7296565;19;20674;-76
2023/08/04 05:53:41;;;;;;;15.37;7.50;;;18.70;99.90;;;;;;7279495;19;20189;-76
2023/08/04 05:56:07;;;;;;;15.03;7.40;;;18.70;99.90;;;;;;7280559;19;20676;-76
2023/08/04 05:58:32;;;;;;;14.80;7.47;;;18.60;99.90;;;;;;7281493;19;20210;-77
2023/08/04 06:00:58;;;;;;;15.03;7.60;;;18.70;99.90;;;;;;7281750;19;20196;-76
2023/08/04 06:03:24;;;;;;;16.83;7.63;;;18.70;99.90;;;;;;7280977;19;20203;-76
2023/08/04 06:05:50;;;;;;;16.03;7.90;;;18.70;99.90;;;;;;7284383;19;20263;-75
2023/08/04 06:08:16;;;;;;;18.80;8.60;;;18.70;99.90;;;;;;7302354;19;20190;-76
2023/08/04 06:10:41;;;;;;;19.83;8.47;;;18.70;99.90;;;;;;7281014;19;20256;-77
2023/08/04 06:13:07;;;;;;;19.20;8.23;;;18.80;99.90;;;;;;7281819;19;20195;-76
2023/08/04 06:15:33;;;;;;;16.60;8.00;;;18.80;99.90;;;;;;7283410;19;20197;-77
2023/08/04 06:17:59;;;;;;;18.00;7.53;;;18.80;99.90;;;;;;7279430;19;20720;-76
2023/08/04 06:20:25;;;;;;;17.23;7.37;;;18.90;99.90;;;;;;7279380;19;20197;-76
2023/08/04 06:22:51;;;;;;;17.67;7.97;;;19.00;99.90;;;;;;7281511;19;20204;-76
2023/08/04 06:25:16;;;;;;;21.27;8.70;;;19.20;99.90;;;;;;7303385;19;20564;-76
2023/08/04 06:27:42;;;;;;;18.83;7.10;;;19.20;99.90;;;;;;7279212;19;20195;-76
2023/08/04 06:30:09;;;;;;;16.87;7.90;;;19.40;99.90;;;;;;7277311;19;20239;-76
2023/08/04 06:32:35;;;;;;;17.33;7.93;;;19.50;99.90;;;;;;7279615;19;20207;-76
2023/08/04 06:35:01;;;;;;;15.40;7.47;;;19.60;99.90;;;;;;7279885;19;20198;-76
2023/08/04 06:37:26;;;;;;;14.50;7.73;;;20.00;99.90;;;;;;7281075;19;20289;-76
2023/08/04 06:39:52;;;;;;;17.40;6.47;;;20.40;99.90;;;;;;7281349;19;20582;-76
2023/08/04 06:42:19;;;;;;;18.30;7.10;;;20.80;99.90;;;;;;7300652;19;20556;-76
2023/08/04 06:44:45;;;;;;;14.77;7.63;;;21.30;99.90;;;;;;7296377;19;20257;-76
2023/08/04 06:47:12;;;;;;;13.77;6.53;;;21.80;99.90;;;;;;7278635;19;20191;-76
2023/08/04 06:49:38;;;;;;;12.73;6.50;;;21.80;99.90;;;;;;7278573;19;20181;-76
2023/08/04 06:52:04;;;;;;;13.90;6.33;;;21.70;99.90;;;;;;7278081;19;20195;-77
2023/08/04 06:54:30;;;;;;;16.83;6.87;;;21.80;99.90;;;;;;7278127;19;20194;-76
2023/08/04 06:56:56;;;;;;;12.93;6.70;;;22.10;99.90;;;;;;7277382;19;20188;-76
2023/08/04 06:59:21;;;;;;;13.20;6.00;;;22.40;99.90;;;;;;7278577;19;20757;-76
2023/08/04 07:01:47;;;;;;;13.67;6.37;;;22.40;99.90;;;;;;7303516;19;20670;-76
2023/08/04 07:04:13;;;;;;;11.20;5.87;;;22.50;99.90;;;;;;7279025;19;20195;-77
2023/08/04 07:06:39;;;;;;;12.23;6.10;;;22.60;99.90;;;;;;7279179;19;20714;-77
2023/08/04 07:09:04;;;;;;;13.37;6.10;;;22.40;99.90;;;;;;7280120;19;20534;-76
2023/08/04 07:11:30;;;;;;;12.07;5.93;;;22.10;99.90;;;;;;7280671;19;20224;-76
2023/08/04 07:13:56;;;;;;;11.37;5.93;;;21.90;99.90;;;;;;7281889;19;20299;-76
2023/08/04 07:16:22;;;;;;;13.87;6.33;;;22.10;99.90;;;;;;7280879;19;20265;-76
2023/08/04 07:18:48;;;;;;;14.90;6.50;;;21.70;99.90;;;;;;7299836;19;20180;-76
2023/08/04 07:21:14;;;;;;;14.63;6.87;;;21.70;99.90;;;;;;7281822;19;20978;-76
2023/08/04 07:23:41;;;;;;;15.63;7.50;;;21.70;99.90;;;;;;7280339;19;20252;-77
2023/08/04 07:26:08;;;;;;;11.57;6.97;;;21.70;99.90;;;;;;7279948;19;20194;-76
2023/08/04 07:28:35;;;;;;;16.90;7.30;;;21.70;99.90;;;;;;7278914;19;20313;-76
2023/08/04 07:31:05;;;;;;;14.03;7.73;;;21.60;99.90;;;;;;7278281;19;20204;-76
2023/08/04 07:33:31;;;;;;;15.10;7.67;;;21.60;99.90;;;;;;7274444;19;20190;-76
2023/08/04 07:35:58;;;;;;;13.30;7.50;;;21.40;99.90;;;;;;7276857;19;20277;-76
2023/08/04 07:38:24;;;;;;;15.20;7.60;;;21.50;99.90;;;;;;7277852;19;20232;-76
2023/08/04 07:40:50;;;;;;;15.80;7.83;;;21.60;99.90;;;;;;7284199;19;20191;-76
2023/08/04 07:43:16;;;;;;;17.53;7.97;;;21.70;99.90;;;;;;7308786;19;20682;-76
2023/08/04 07:45:42;;;;;;;12.67;7.50;;;21.80;99.90;;;;;;7286227;19;20199;-76
2023/08/04 07:48:08;;;;;;;14.20;7.60;;;21.90;99.90;;;;;;7287295;19;20182;-77
2023/08/04 07:50:39;;;;;;;12.17;6.60;;;22.10;99.90;;;;;;7285951;19;20205;-77
2023/08/04 07:53:05;;;;;;;13.73;6.57;;;22.20;99.90;;;;;;7285193;19;20203;-77
2023/08/04 07:55:34;;;;;;;12.10;6.40;;;22.30;99.90;;;;;;7285480;19;20590;-77
2023/08/04 07:58:01;;;;;;;11.47;6.13;;;22.40;99.90;;;;;;7283907;19;20219;-77
2023/08/04 08:00:27;;;;;;;12.33;6.00;;;21.90;99.90;;;;;;7285338;19;20206;-77
2023/08/04 08:02:52;;;;;;;10.93;5.47;;;21.70;99.90;;;;;;7283815;19;20641;-77
2023/08/04 08:05:18;;;;;;;10.37;5.17;;;21.90;99.90;;;;;;7306357;19;20220;-77
2023/08/04 08:07:44;;;;;;;9.77;4.47;;;22.00;99.90;;;;;;7285686;19;20190;-77
2023/08/04 08:10:09;;;;;;;8.20;4.10;;;22.00;99.90;;;;;;7282440;19;20233;-77
2023/08/04 08:12:36;;;;;;;8.73;4.20;;;21.90;99.90;;;;;;7286732;19;20295;-77
2023/08/04 08:15:04;;;;;;;9.17;4.27;;;21.80;99.90;;;;;;7286283;19;20219;-77
2023/08/04 08:17:31;;;;;;;9.40;4.23;;;21.70;99.90;;;;;;7283541;19;20189;-76
2023/08/04 08:19:57;;;;;;;8.53;4.33;;;21.50;99.90;;;;;;7286544;19;20196;-76
2023/08/04 08:22:22;;;;;;;12.10;4.23;;;21.20;99.90;;;;;;7285096;19;20179;-77
2023/08/04 08:24:53;;;;;;;9.40;4.70;;;20.90;99.90;;;;;;7307651;19;20723;-76
2023/08/04 08:27:19;;;;;;;9.30;4.13;;;20.70;99.90;;;;;;7282077;19;20616;-76
2023/08/04 08:29:44;;;;;;;8.33;4.47;;;20.50;99.90;;;;;;7297388;19;20208;-78
2023/08/04 08:32:10;;;;;;;10.27;3.90;;;20.50;99.90;;;;;;7283990;19;21000;-77
2023/08/04 08:34:36;;;;;;;8.53;3.63;;;20.40;99.90;;;;;;7286072;19;20213;-77
2023/08/04 08:37:02;;;;;;;8.00;3.33;;;20.50;99.90;;;;;;7283287;19;20207;-77
2023/08/04 08:39:29;;;;;;;7.30;2.70;;;20.50;99.90;;;;;;7283597;19;20202;-76
2023/08/04 08:41:58;;;;;;;5.50;2.30;;;20.50;99.90;;;;;;7284256;19;20200;-76
2023/08/04 08:44:23;;;;;;;8.50;2.77;;;21.00;99.90;;;;;;7283106;19;20190;-76
2023/08/04 08:46:50;;;;;;;5.53;2.30;;;21.80;99.90;;;;;;7297085;19;20268;-76
2023/08/04 08:49:16;;;;;;;4.20;2.17;;;22.30;99.90;;;;;;7306652;19;20181;-76
2023/08/04 08:51:48;;;;;;;7.53;2.60;;;22.70;99.90;;;;;;7283421;19;20271;-76
2023/08/04 08:54:15;;;;;;;7.53;2.33;;;23.70;99.90;;;;;;7282428;19;20263;-76
2023/08/04 08:56:41;;;;;;;5.43;2.00;;;24.30;99.90;;;;;;7281840;19;20198;-76
2023/08/04 08:59:08;;;;;;;5.87;1.83;;;24.90;99.90;;;;;;7283680;19;20196;-76
2023/08/04 09:01:34;;;;;;;6.87;1.87;;;25.90;99.90;;;;;;7286004;19;20205;-76
2023/08/04 09:04:00;;;;;;;6.90;1.80;;;26.50;99.90;;;;;;7282864;19;20212;-77
2023/08/04 09:06:26;;;;;;;3.43;1.43;;;27.30;99.90;;;;;;7282730;19;20192;-77
2023/08/04 09:08:53;;;;;;;6.40;1.52;;;27.80;99.90;;;;;;7282604;19;20204;-77
2023/08/04 09:11:19;;;;;;;5.78;1.50;;;28.20;99.90;;;;;;7299333;19;20196;-76
2023/08/04 09:13:46;;;;;;;5.85;1.83;;;28.00;99.90;;;;;;7300223;19;20215;-76
2023/08/04 09:16:12;;;;;;;5.85;1.42;;;27.50;99.90;;;;;;7285826;19;20200;-78
2023/08/04 09:18:39;;;;;;;5.28;1.67;;;26.90;99.90;;;;;;7284936;19;20185;-77
2023/08/04 09:21:07;;;;;;;6.37;1.80;;;26.50;99.90;;;;;;7283371;19;20197;-77
2023/08/04 09:23:41;;;;;;;3.83;1.73;;;25.50;99.90;;;;;;7284096;19;20192;-78
2023/08/04 09:26:06;;;;;;;6.03;1.90;;;24.80;99.90;;;;;;7284242;19;20532;-77
2023/08/04 09:28:32;;;;;;;6.60;1.87;;;25.20;99.90;;;;;;7282630;19;20185;-77
2023/08/04 09:31:10;;;;;;;5.97;2.17;;;24.90;99.90;;;;;;7284234;19;20212;-77
2023/08/04 09:33:41;;;;;;;9.43;1.90;;;25.10;99.90;;;;;;7284786;19;20192;-77
2023/08/04 09:36:12;;;;;;;5.37;1.67;;;25.40;99.90;;;;;;7284287;19;20671;-77
2023/08/04 09:38:39;;;;;;;5.17;1.60;;;25.80;99.90;;;;;;7281069;19;20935;-76
2023/08/04 09:41:10;;;;;;;4.17;1.40;;;26.30;99.90;;;;;;7282339;19;20196;-76
2023/08/04 09:43:47;;;;;;;5.77;1.50;;;27.00;99.90;;;;;;7283592;19;20294;-77
2023/08/04 09:46:13;;;;;;;4.30;1.37;;;26.70;99.90;;;;;;7283385;19;20196;-76
2023/08/04 09:48:39;;;;;;;5.07;1.40;;;27.90;99.90;;;;;;7283913;19;20662;-76
2023/08/04 09:51:08;;;;;;;4.90;1.40;;;28.70;99.90;;;;;;7282550;19;20188;-77
2023/08/04 09:53:44;;;;;;;6.00;1.30;;;28.50;99.90;;;;;;7281659;19;20185;-76
2023/08/04 09:56:12;;;;;;;5.95;1.30;;;28.20;99.90;;;;;;7283475;19;20555;-77
2023/08/04 09:58:42;;;;;;;6.03;1.30;;;28.20;99.90;;;;;;7281461;19;20200;-77
2023/08/04 10:01:08;;;;;;;3.90;1.33;;;27.20;99.90;;;;;;7282537;19;20185;-77
2023/08/04 10:03:36;;;;;;;4.53;1.30;;;27.20;99.90;;;;;;7281736;19;20268;-77
2023/08/04 10:06:03;;;;;;;4.13;1.30;;;28.20;99.90;;;;;;7280951;19;20203;-78
2023/08/04 10:08:39;;;;;;;3.22;1.63;;;28.40;99.90;;;;;;7281922;19;20209;-77
2023/08/04 10:11:05;;;;;;;3.63;1.58;;;28.70;99.90;;;;;;7282952;19;20190;-77
2023/08/04 10:13:34;;;;;;;5.78;1.50;;;29.00;99.90;;;;;;7279923;19;20189;-77
2023/08/04 10:16:03;;;;;;;5.93;1.52;;;29.00;99.90;;;;;;7283260;19;20185;-77
2023/08/04 10:18:55;;;;;;;5.45;1.73;;;28.70;99.90;;;;;;7282211;19;20638;-78
2023/08/04 10:21:28;;;;;;;5.45;1.35;;;28.90;99.90;;;;;;7261007;19;20704;-78
2023/08/04 10:23:57;;;;;;;4.45;1.70;;;29.80;99.90;;;;;;7283042;19;20548;-77
2023/08/04 10:26:23;;;;;;;4.53;1.40;;;30.10;99.90;;;;;;7280956;19;20193;-77
2023/08/04 10:29:04;;;;;;;5.57;1.50;;;30.30;99.90;;;;;;7301929;19;20257;-77
2023/08/04 10:31:55;;;;;;;5.57;1.30;;;28.30;99.90;;;;;;7281563;19;20196;-77
2023/08/04 10:34:25;;;;;;;3.47;1.08;;;28.00;99.90;;;;;;7260807;19;20185;-78
2023/08/04 10:37:01;;;;;;;4.45;1.00;;;28.70;99.90;;;;;;7281105;19;20192;-77
2023/08/04 10:39:35;;;;;;;7.13;1.45;;;27.60;99.90;;;;;;7281913;19;20192;-77
2023/08/04 10:42:14;;;;;;;5.30;1.20;;;27.40;99.90;;;;;;7280994;19;20193;-77
2023/08/04 10:44:51;;;;;;;4.93;1.48;;;28.40;99.90;;;;;;7280938;19;20205;-77
2023/08/04 10:47:44;;;;;;;4.45;1.00;;;29.50;99.90;;;;;;7282873;19;20188;-78
2023/08/04 10:50:10;;;;;;;4.53;1.13;;;30.00;99.00;;;;;;7179853;19;2004540;-77
2023/08/04 10:52:37;;;;;;;3.80;1.10;;;29.70;99.90;;;;;;7281564;19;20193;-77
2023/08/04 10:55:06;;;;;;;3.88;1.20;;;28.50;99.90;;;;;;7281767;19;20191;-77
2023/08/04 10:57:33;;;;;;;5.90;1.73;;;28.90;99.90;;;;;;7280041;19;20221;-77
2023/08/04 11:00:05;;;;;;;4.28;1.15;;;28.90;99.90;;;;;;7281364;19;20204;-77
2023/08/04 11:02:32;;;;;;;3.78;1.20;;;28.30;99.90;;;;;;7282105;19;20303;-77
2023/08/04 11:04:58;;;;;;;3.95;1.33;;;28.40;99.90;;;;;;7280301;19;20189;-77
2023/08/04 11:07:24;;;;;;;2.65;1.13;;;28.90;99.90;;;;;;7283082;19;20252;-78
2023/08/04 11:09:53;;;;;;;4.97;1.20;;;30.10;99.90;;;;;;7291129;19;20237;-77
2023/08/04 11:12:19;;;;;;;2.13;1.15;;;30.40;96.70;;;;;;7299473;19;20213;-77
2023/08/04 11:14:46;;;;;;;4.70;1.30;;;29.40;98.10;;;;;;7294321;19;21063;-77
2023/08/04 11:17:17;;;;;;;4.90;1.20;;;29.00;99.70;;;;;;7278397;19;20206;-77
2023/08/04 11:19:44;;;;;;;4.40;1.20;;;28.60;99.90;;;;;;7280137;19;20314;-77
2023/08/04 11:22:12;;;;;;;6.82;1.42;;;29.20;99.90;;;;;;7279596;19;20209;-77
2023/08/04 11:24:38;;;;;;;4.18;0.95;;;29.90;99.10;;;;;;7280225;19;20656;-77
2023/08/04 11:27:08;;;;;;;3.38;1.10;;;31.40;94.80;;;;;;7280711;19;20202;-74
2023/08/04 11:29:34;;;;;;;5.35;1.35;;;32.20;94.70;;;;;;7279232;19;20189;-77
2023/08/04 11:32:00;;;;;;;3.75;1.15;;;31.80;92.70;;;;;;7279780;19;20731;-78
2023/08/04 11:34:29;;;;;;;3.95;1.30;;;30.40;93.70;;;;;;7280509;19;20546;-78
2023/08/04 11:36:55;;;;;;;7.65;1.50;;;29.10;99.90;;;;;;7280149;19;20184;-78
2023/08/04 11:39:20;;;;;;;5.07;1.27;;;28.00;99.90;;;;;;7287242;19;20554;-77
2023/08/04 11:41:46;;;;;;;3.63;1.27;;;27.00;99.90;;;;;;7303144;19;20972;-77
2023/08/04 11:44:15;;;;;;;3.33;1.40;;;26.20;99.90;;;;;;7278920;19;20203;-77
2023/08/04 11:46:41;;;;;;;4.63;1.40;;;26.60;99.90;;;;;;7282082;19;20195;-76
2023/08/04 11:49:08;;;;;;;6.00;1.45;;;27.80;99.90;;;;;;7280396;19;20218;-77
2023/08/04 11:51:34;;;;;;;6.72;1.38;;;29.40;99.90;;;;;;7278643;19;20660;-77
2023/08/04 11:54:00;;;;;;;9.23;1.30;;;30.60;99.90;;;;;;7279722;19;20193;-77
2023/08/04 11:56:37;;;;;;;3.58;1.17;;;31.20;99.90;;;;;;7280181;19;20312;-77
2023/08/04 11:59:12;;;;;;;4.65;1.15;;;30.50;94.80;;;;;;7277994;19;20215;-76
2023/08/04 12:01:38;;;;;;;3.63;1.13;;;29.60;99.90;;;;;;7280116;19;20196;-77
2023/08/04 12:04:25;;;;;;;4.20;0.98;;;30.40;99.90;;;;;;7277399;19;20216;-77
2023/08/04 12:07:05;;;;;;;4.85;1.10;;;31.10;97.40;;;;;;7261883;19;20211;-78
2023/08/04 12:09:34;;;;;;;5.43;0.80;;;31.10;97.90;;;;;;7277875;19;20204;-77
2023/08/04 12:12:01;;;;;;;2.80;1.20;;;31.80;94.50;;;;;;7279181;19;20280;-77
2023/08/04 12:14:26;;;;;;;5.57;1.20;;;31.70;93.90;;;;;;7280580;19;20193;-78
2023/08/04 12:17:00;;;;;;;4.47;1.10;;;31.50;93.50;;;;;;7281183;19;20785;-77
2023/08/04 12:19:30;;;;;;;6.30;1.50;;;31.40;93.10;;;;;;7279621;19;20198;-78
2023/08/04 12:22:03;;;;;;;8.77;1.52;;;31.60;94.70;;;;;;7282847;19;20657;-77
2023/08/04 12:24:30;;;;;;;4.90;1.23;;;31.50;94.20;;;;;;7281584;19;20844;-77
2023/08/04 12:26:56;;;;;;;3.35;1.17;;;31.20;95.00;;;;;;7284291;19;20692;-77
2023/08/04 12:29:22;;;;;;;4.70;1.40;;;29.10;99.90;;;;;;7286482;19;20209;-77
2023/08/04 12:31:50;;;;;;;4.95;1.30;;;27.90;99.90;;;;;;7311408;19;20181;-77
2023/08/04 12:34:16;;;;;;;3.25;1.02;;;27.60;99.90;;;;;;7292209;19;20213;-78
2023/08/04 12:36:42;;;;;;;4.05;1.00;;;27.10;99.90;;;;;;7292171;19;20189;-77
2023/08/04 12:39:08;;;;;;;7.65;1.65;;;27.10;99.90;;;;;;7292585;19;20188;-78
2023/08/04 12:41:35;;;;;;;4.07;1.15;;;26.60;99.90;;;;;;7295550;19;20192;-78